createdAt,value
2018-09-19T00:00:26.596Z,69.44
2018-09-19T00:02:55.023Z,69.27
2018-09-19T00:05:24.246Z,69.21
2018-09-19T00:07:53.538Z,69.27
2018-09-19T00:10:23.713Z,69.78
2018-09-19T00:12:53.167Z,69.61
2018-09-19T00:15:22.162Z,69.94
2018-09-19T00:17:51.219Z,69.90
2018-09-19T00:20:20.981Z,69.97
2018-09-19T00:22:49.696Z,70.06
2018-09-19T00:25:19.044Z,70.26
2018-09-19T00:27:48.498Z,69.75
2018-09-19T00:30:17.234Z,69.59
2018-09-19T00:32:46.163Z,69.75
2018-09-19T00:35:17.019Z,69.89
2018-09-19T00:37:46.104Z,70.01
2018-09-19T00:40:15.645Z,70.44
2018-09-19T00:42:44.446Z,70.03
2018-09-19T00:45:14.157Z,70.51
2018-09-19T00:47:43.878Z,70.45
2018-09-19T00:50:12.329Z,70.08
2018-09-19T00:52:41.716Z,70.35
2018-09-19T00:55:10.895Z,70.68
2018-09-19T00:57:39.699Z,70.60
2018-09-19T01:00:09.404Z,70.46
2018-09-19T01:02:38.535Z,71.06
2018-09-19T01:05:07.985Z,70.71
2018-09-19T01:07:37.729Z,70.49
2018-09-19T01:10:06.916Z,71.19
2018-09-19T01:12:35.629Z,71.05
2018-09-19T01:15:04.656Z,71.24
2018-09-19T01:17:33.544Z,71.01
2018-09-19T01:20:03.188Z,70.69
2018-09-19T01:22:32.736Z,70.96
2018-09-19T01:25:01.403Z,70.93
2018-09-19T01:27:30.828Z,70.86
2018-09-19T01:29:59.940Z,70.99
2018-09-19T01:32:28.487Z,71.71
2018-09-19T01:34:57.400Z,71.67
2018-09-19T01:37:26.879Z,71.26
2018-09-19T01:39:55.471Z,71.01
2018-09-19T01:42:24.586Z,71.77
2018-09-19T01:44:54.035Z,71.15
2018-09-19T01:47:23.289Z,71.88
2018-09-19T01:49:53.865Z,70.99
2018-09-19T01:52:22.970Z,71.31
2018-09-19T01:54:51.513Z,71.37
2018-09-19T01:57:20.769Z,71.17
2018-09-19T01:59:50.494Z,71.69
2018-09-19T02:02:19.420Z,71.72
2018-09-19T02:04:49.586Z,71.16
2018-09-19T02:07:19.091Z,71.37
2018-09-19T02:09:47.782Z,71.88
2018-09-19T02:12:17.334Z,72.08
2018-09-19T02:14:46.563Z,71.54
2018-09-19T02:17:15.165Z,72.17
2018-09-19T02:19:44.849Z,72.35
2018-09-19T02:22:13.952Z,72.28
2018-09-19T02:24:42.844Z,72.54
2018-09-19T02:27:11.907Z,72.47
2018-09-19T02:29:41.128Z,72.75
2018-09-19T02:32:09.776Z,72.15
2018-09-19T02:34:39.055Z,72.86
2018-09-19T02:37:08.572Z,72.59
2018-09-19T02:39:37.199Z,73.07
2018-09-19T02:42:07.185Z,73.19
2018-09-19T02:44:36.316Z,72.65
2018-09-19T02:47:04.897Z,73.23
2018-09-19T02:49:34.544Z,72.47
2018-09-19T02:52:03.934Z,73.24
2018-09-19T02:54:32.476Z,73.12
2018-09-19T02:57:01.533Z,72.66
2018-09-19T02:59:30.789Z,72.74
2018-09-19T03:01:59.367Z,72.97
2018-09-19T03:04:28.600Z,72.80
2018-09-19T03:06:58.348Z,73.23
2018-09-19T03:09:26.927Z,73.51
2018-09-19T03:11:56.155Z,72.99
2018-09-19T03:14:25.328Z,72.98
2018-09-19T03:16:54.544Z,73.80
2018-09-19T03:19:24.892Z,73.33
2018-09-19T03:21:54.351Z,73.30
2018-09-19T03:24:22.867Z,73.34
2018-09-19T03:26:51.976Z,73.79
2018-09-19T03:29:21.289Z,73.45
2018-09-19T03:31:50.025Z,73.41
2018-09-19T03:34:19.132Z,74.18
2018-09-19T03:36:48.232Z,73.49
2018-09-19T03:39:16.738Z,74.14
2018-09-19T03:41:45.737Z,74.27
2018-09-19T03:44:14.632Z,74.22
2018-09-19T03:46:43.728Z,73.81
2018-09-19T03:49:12.575Z,74.05
2018-09-19T03:51:41.774Z,74.63
2018-09-19T03:54:11.400Z,74.65
2018-09-19T03:56:40.367Z,74.74
2018-09-19T03:59:09.819Z,74.68
2018-09-19T04:01:38.366Z,74.27
2018-09-19T04:04:06.916Z,75.01
2018-09-19T04:06:36.231Z,74.11
2018-09-19T04:09:08.761Z,74.39
2018-09-19T04:11:38.044Z,74.53
2018-09-19T04:14:07.679Z,75.08
2018-09-19T04:16:36.702Z,74.38
2018-09-19T04:19:06.368Z,74.31
2018-09-19T04:21:35.358Z,74.89
2018-09-19T04:24:04.771Z,74.68
2018-09-19T04:26:33.873Z,74.62
2018-09-19T04:29:02.594Z,74.50
2018-09-19T04:31:31.625Z,74.52
2018-09-19T04:34:00.911Z,74.42
2018-09-19T04:36:29.559Z,74.60
2018-09-19T04:38:59.227Z,74.50
2018-09-19T04:41:28.451Z,75.37
2018-09-19T04:43:57.052Z,74.51
2018-09-19T04:46:26.389Z,74.79
2018-09-19T04:48:55.581Z,75.43
2018-09-19T04:51:24.288Z,74.84
2018-09-19T04:53:52.846Z,74.60
2018-09-19T04:56:23.347Z,75.42
2018-09-19T04:58:51.932Z,75.49
2018-09-19T05:01:21.363Z,74.82
2018-09-19T05:03:50.723Z,74.84
2018-09-19T05:06:19.412Z,74.86
2018-09-19T05:08:47.954Z,74.89
2018-09-19T05:11:17.400Z,75.68
2018-09-19T05:13:46.692Z,74.98
2018-09-19T05:16:15.330Z,75.37
2018-09-19T05:18:46.043Z,75.68
2018-09-19T05:21:14.964Z,75.42
2018-09-19T05:23:43.916Z,75.81
2018-09-19T05:26:13.368Z,75.44
2018-09-19T05:28:42.416Z,75.86
2018-09-19T05:31:11.075Z,75.97
2018-09-19T05:33:40.222Z,76.08
2018-09-19T05:36:09.406Z,76.12
2018-09-19T05:38:38.173Z,76.14
2018-09-19T05:41:07.519Z,76.22
2018-09-19T05:43:36.672Z,75.61
2018-09-19T05:46:05.859Z,75.72
2018-09-19T05:48:34.965Z,76.11
2018-09-19T05:51:04.728Z,75.71
2018-09-19T05:53:33.319Z,76.45
2018-09-19T05:56:02.283Z,75.80
2018-09-19T05:58:32.223Z,76.51
2018-09-19T06:01:00.809Z,76.45
2018-09-19T06:03:30.345Z,76.96
2018-09-19T06:05:59.215Z,76.31
2018-09-19T06:08:27.717Z,76.68
2018-09-19T06:10:56.885Z,76.58
2018-09-19T06:13:26.046Z,76.06
2018-09-19T06:15:54.649Z,76.60
2018-09-19T06:18:23.144Z,76.73
2018-09-19T06:20:52.802Z,76.62
2018-09-19T06:23:21.811Z,76.94
2018-09-19T06:25:50.894Z,76.41
2018-09-19T06:28:20.584Z,77.25
2018-09-19T06:30:49.364Z,76.68
2018-09-19T06:33:18.752Z,76.51
2018-09-19T06:35:47.739Z,77.21
2018-09-19T06:38:16.879Z,76.70
2018-09-19T06:40:45.651Z,77.33
2018-09-19T06:43:14.760Z,76.75
2018-09-19T06:45:44.186Z,77.01
2018-09-19T06:48:13.257Z,76.15
2018-09-19T06:50:42.217Z,76.76
2018-09-19T06:53:10.936Z,76.22
2018-09-19T06:55:40.616Z,76.64
2018-09-19T06:58:09.930Z,76.36
2018-09-19T07:00:39.143Z,76.38
2018-09-19T07:03:08.004Z,75.68
2018-09-19T07:05:37.395Z,75.75
2018-09-19T07:08:06.330Z,75.48
2018-09-19T07:10:35.564Z,75.46
2018-09-19T07:13:04.683Z,74.68
2018-09-19T07:15:33.956Z,75.34
2018-09-19T07:18:03.142Z,75.07
2018-09-19T07:20:32.375Z,74.30
2018-09-19T07:23:01.656Z,73.96
2018-09-19T07:25:30.263Z,73.63
2018-09-19T07:27:59.694Z,73.72
2018-09-19T07:30:29.138Z,73.79
2018-09-19T07:32:58.125Z,73.44
2018-09-19T07:35:27.354Z,73.02
2018-09-19T07:37:56.881Z,72.31
2018-09-19T07:40:26.281Z,72.34
2018-09-19T07:42:55.455Z,71.88
2018-09-19T07:45:24.149Z,72.21
2018-09-19T07:47:53.136Z,71.39
2018-09-19T07:50:22.321Z,71.51
2018-09-19T07:52:52.170Z,71.47
2018-09-19T07:55:21.427Z,70.33
2018-09-19T07:57:50.465Z,70.67
2018-09-19T08:00:19.122Z,70.37
2018-09-19T08:02:48.190Z,70.17
2018-09-19T08:05:17.508Z,69.92
2018-09-19T08:07:46.171Z,69.46
2018-09-19T08:10:15.996Z,68.93
2018-09-19T08:12:45.379Z,68.11
2018-09-19T08:15:13.924Z,67.79
2018-09-19T08:17:42.669Z,67.83
2018-09-19T08:20:11.878Z,68.00
2018-09-19T08:22:40.615Z,66.82
2018-09-19T08:25:09.728Z,66.86
2018-09-19T08:27:39.416Z,66.52
2018-09-19T08:30:08.024Z,66.88
2018-09-19T08:32:38.030Z,66.47
2018-09-19T08:35:07.708Z,65.91
2018-09-19T08:37:36.290Z,66.13
2018-09-19T08:40:07.470Z,65.96
2018-09-19T08:42:36.012Z,64.84
2018-09-19T08:45:04.703Z,65.11
2018-09-19T08:47:33.764Z,63.96
2018-09-19T08:50:04.440Z,64.50
2018-09-19T08:52:34.049Z,64.24
2018-09-19T08:55:04.925Z,63.06
2018-09-19T08:57:34.203Z,63.62
2018-09-19T09:00:03.624Z,62.91
2018-09-19T09:02:32.170Z,62.46
2018-09-19T09:05:01.883Z,63.19
2018-09-19T09:07:30.980Z,62.76
2018-09-19T09:09:59.523Z,62.06
2018-09-19T09:12:28.879Z,61.94
2018-09-19T09:14:57.845Z,62.31
2018-09-19T09:17:26.592Z,62.07
2018-09-19T09:19:56.316Z,61.12
2018-09-19T09:22:25.778Z,60.54
2018-09-19T09:24:54.340Z,60.25
2018-09-19T09:27:23.410Z,59.88
2018-09-19T09:29:52.802Z,60.28
2018-09-19T09:32:22.123Z,59.36
2018-09-19T09:34:51.294Z,60.33
2018-09-19T09:37:20.428Z,59.52
2018-09-19T09:39:49.466Z,59.38
2018-09-19T09:42:18.041Z,59.16
2018-09-19T09:44:46.988Z,58.86
2018-09-19T09:47:16.422Z,58.94
2018-09-19T09:49:45.032Z,58.43
2018-09-19T09:52:13.859Z,57.90
2018-09-19T09:54:42.898Z,56.71
2018-09-19T09:57:12.135Z,57.24
2018-09-19T09:59:41.224Z,56.58
2018-09-19T10:02:10.536Z,56.44
2018-09-19T10:04:39.581Z,56.96
2018-09-19T10:07:08.434Z,56.84
2018-09-19T10:09:37.816Z,57.11
2018-09-19T10:12:07.205Z,57.02
2018-09-19T10:14:36.309Z,56.94
2018-09-19T10:17:06.298Z,56.40
2018-09-19T10:19:35.138Z,55.81
2018-09-19T10:22:04.549Z,55.87
2018-09-19T10:24:33.965Z,56.97
2018-09-19T10:27:03.389Z,56.42
2018-09-19T10:29:32.296Z,56.29
2018-09-19T10:32:01.163Z,55.31
2018-09-19T10:34:30.383Z,55.14
2018-09-19T10:36:58.951Z,54.96
2018-09-19T10:39:28.398Z,54.75
2018-09-19T10:41:57.641Z,54.49
2018-09-19T10:44:26.163Z,54.91
2018-09-19T10:46:55.674Z,54.58
2018-09-19T10:49:25.036Z,54.32
2018-09-19T10:51:53.630Z,53.14
2018-09-19T10:54:23.144Z,53.70
2018-09-19T10:56:52.483Z,52.63
2018-09-19T10:59:21.132Z,52.41
2018-09-19T11:01:50.144Z,53.02
2018-09-19T11:04:20.734Z,53.14
2018-09-19T11:06:49.426Z,53.23
2018-09-19T11:09:18.886Z,53.38
2018-09-19T11:11:48.142Z,52.75
2018-09-19T11:14:17.808Z,53.46
2018-09-19T11:16:46.809Z,52.99
2018-09-19T11:19:16.190Z,52.31
2018-09-19T11:21:45.457Z,52.52
2018-09-19T11:24:15.053Z,51.87
2018-09-19T11:26:44.511Z,51.64
2018-09-19T11:29:13.238Z,51.30
2018-09-19T11:31:42.510Z,50.90
2018-09-19T11:34:11.784Z,50.55
2018-09-19T11:36:40.265Z,50.99
2018-09-19T11:39:11.712Z,50.31
2018-09-19T11:41:41.205Z,48.99
2018-09-19T11:44:11.123Z,48.98
2018-09-19T11:46:40.296Z,48.88
2018-09-19T11:49:09.033Z,48.02
2018-09-19T11:51:38.057Z,48.08
2018-09-19T11:54:08.137Z,48.81
2018-09-19T11:56:37.696Z,48.68
2018-09-19T11:59:06.771Z,48.65
2018-09-19T12:01:36.400Z,47.54
2018-09-19T12:04:06.336Z,48.54
2018-09-19T12:06:35.438Z,48.29
2018-09-19T12:09:06.217Z,48.33
2018-09-19T12:11:35.798Z,48.86
2018-09-19T12:14:05.857Z,48.52
2018-09-19T12:16:34.887Z,48.61
2018-09-19T12:19:04.554Z,48.00
2018-09-19T12:21:33.376Z,48.26
2018-09-19T12:24:01.997Z,48.18
2018-09-19T12:26:31.103Z,47.95
2018-09-19T12:29:01.247Z,47.65
2018-09-19T12:31:29.823Z,47.60
2018-09-19T12:33:59.030Z,46.61
2018-09-19T12:36:28.598Z,46.28
2018-09-19T12:38:57.554Z,47.14
2018-09-19T12:41:26.865Z,46.69
2018-09-19T12:43:56.398Z,46.86
2018-09-19T12:46:24.922Z,46.08
2018-09-19T12:48:54.684Z,46.63
2018-09-19T12:51:23.793Z,45.71
2018-09-19T12:53:52.296Z,46.09
2018-09-19T12:56:21.283Z,45.11
2018-09-19T12:58:51.011Z,44.93
2018-09-19T13:01:19.932Z,44.99
2018-09-19T13:03:48.956Z,44.80
2018-09-19T13:06:18.176Z,45.28
2018-09-19T13:08:47.661Z,45.55
2018-09-19T13:11:16.280Z,44.98
2018-09-19T13:13:45.740Z,45.71
2018-09-19T13:16:18.545Z,44.94
2018-09-19T13:18:48.014Z,45.26
2018-09-19T13:21:16.944Z,44.77
2018-09-19T13:23:47.934Z,44.95
2018-09-19T13:26:16.750Z,45.08
2018-09-19T13:28:45.876Z,44.69
2018-09-19T13:31:16.150Z,44.38
2018-09-19T13:33:45.122Z,44.52
2018-09-19T13:36:14.009Z,45.26
2018-09-19T13:38:43.159Z,44.78
2018-09-19T13:41:12.406Z,44.94
2018-09-19T13:43:41.079Z,44.23
2018-09-19T13:46:10.821Z,44.12
2018-09-19T13:48:43.880Z,44.28
2018-09-19T13:51:17.298Z,44.68
2018-09-19T13:53:46.791Z,44.80
2018-09-19T13:56:15.823Z,44.53
2018-09-19T13:58:45.442Z,44.44
2018-09-19T14:01:15.927Z,45.15
2018-09-19T14:03:46.377Z,45.01
2018-09-19T14:06:15.756Z,44.92
2018-09-19T14:08:45.072Z,44.90
2018-09-19T14:11:14.988Z,44.33
2018-09-19T14:13:43.821Z,44.35
2018-09-19T14:16:12.941Z,45.17
2018-09-19T14:18:43.503Z,44.59
2018-09-19T14:21:12.039Z,44.66
2018-09-19T14:23:42.521Z,44.33
2018-09-19T14:26:12.170Z,45.18
2018-09-19T14:28:40.793Z,44.99
2018-09-19T14:31:10.376Z,44.34
2018-09-19T14:33:40.337Z,44.85
2018-09-19T14:36:08.895Z,44.67
2018-09-19T14:38:38.365Z,44.53
2018-09-19T14:41:07.794Z,44.25
2018-09-19T14:43:36.412Z,43.91
2018-09-19T14:46:06.522Z,44.08
2018-09-19T14:48:37.881Z,44.26
2018-09-19T14:51:07.197Z,43.74
2018-09-19T14:53:36.254Z,44.32
2018-09-19T14:56:07.324Z,43.94
2018-09-19T14:58:36.871Z,43.71
2018-09-19T15:01:06.539Z,44.14
2018-09-19T15:03:36.028Z,44.03
2018-09-19T15:06:05.178Z,44.18
2018-09-19T15:08:34.236Z,43.80
2018-09-19T15:11:02.988Z,43.47
2018-09-19T15:13:33.020Z,43.87
2018-09-19T15:16:02.158Z,44.15
2018-09-19T15:20:59.000Z,43.88
2018-09-19T15:23:29.005Z,44.30
2018-09-19T15:26:02.860Z,44.48
2018-09-19T15:28:34.187Z,44.08
2018-09-19T15:33:30.157Z,44.26
2018-09-19T15:36:00.290Z,45.08
2018-09-19T15:38:29.500Z,45.05
2018-09-19T15:40:58.511Z,45.35
2018-09-19T15:43:27.081Z,44.84
2018-09-19T15:45:56.924Z,44.69
2018-09-19T15:48:26.247Z,44.75
2018-09-19T15:50:54.878Z,45.67
2018-09-19T15:53:24.382Z,45.77
2018-09-19T15:55:53.416Z,45.27
2018-09-19T15:58:22.470Z,45.87
2018-09-19T16:00:51.172Z,46.31
2018-09-19T16:03:20.006Z,45.95
2018-09-19T16:05:49.378Z,46.53
2018-09-19T16:08:18.612Z,45.87
2018-09-19T16:10:47.983Z,46.28
2018-09-19T16:13:16.522Z,47.07
2018-09-19T16:15:46.238Z,46.25
2018-09-19T16:18:15.406Z,46.46
2018-09-19T16:20:44.848Z,47.33
2018-09-19T16:23:13.529Z,46.48
2018-09-19T16:25:42.172Z,47.53
2018-09-19T16:28:11.917Z,47.66
2018-09-19T16:30:41.288Z,47.24
2018-09-19T16:33:10.134Z,47.75
2018-09-19T16:35:38.709Z,46.96
2018-09-19T16:38:07.574Z,47.22
2018-09-19T16:40:39.633Z,47.47
2018-09-19T16:43:08.665Z,48.38
2018-09-19T16:45:37.322Z,47.66
2018-09-19T16:48:06.881Z,48.13
2018-09-19T16:50:36.292Z,47.71
2018-09-19T16:53:05.839Z,47.92
2018-09-19T16:55:34.449Z,48.06
2018-09-19T16:58:03.806Z,48.84
2018-09-19T17:00:32.878Z,48.86
2018-09-19T17:03:02.211Z,48.16
2018-09-19T17:05:32.210Z,48.60
2018-09-19T17:08:02.218Z,48.55
2018-09-19T17:10:31.833Z,48.64
2018-09-19T17:13:00.998Z,48.98
2018-09-19T17:15:29.693Z,48.71
2018-09-19T17:17:59.802Z,48.79
2018-09-19T17:20:28.893Z,48.91
2018-09-19T17:22:58.333Z,49.16
2018-09-19T17:25:27.471Z,49.86
2018-09-19T17:27:56.040Z,49.96
2018-09-19T17:30:25.458Z,49.96
2018-09-19T17:32:54.638Z,50.07
2018-09-19T17:35:24.883Z,50.27
2018-09-19T17:37:54.499Z,49.77
2018-09-19T17:40:24.170Z,49.83
2018-09-19T17:42:53.754Z,50.67
2018-09-19T17:45:22.412Z,50.03
2018-09-19T17:47:51.113Z,50.28
2018-09-19T17:50:20.409Z,50.79
2018-09-19T17:52:49.741Z,50.83
2018-09-19T17:55:19.129Z,50.65
2018-09-19T17:57:48.342Z,51.45
2018-09-19T18:00:17.149Z,51.43
2018-09-19T18:02:45.891Z,50.92
2018-09-19T18:05:14.939Z,51.61
2018-09-19T18:07:44.310Z,51.33
2018-09-19T18:10:13.480Z,51.42
2018-09-19T18:12:42.646Z,52.07
2018-09-19T18:15:11.412Z,51.48
2018-09-19T18:17:40.403Z,52.17
2018-09-19T18:20:09.724Z,52.42
2018-09-19T18:22:38.842Z,51.68
2018-09-19T18:25:08.529Z,52.40
2018-09-19T18:27:37.986Z,52.26
2018-09-19T18:30:07.670Z,53.20
2018-09-19T18:32:36.994Z,52.24
2018-09-19T18:35:06.590Z,52.41
2018-09-19T18:37:35.261Z,53.20
2018-09-19T18:40:04.506Z,53.54
2018-09-19T18:42:34.063Z,53.79
2018-09-19T18:45:03.570Z,53.71
2018-09-19T18:47:33.128Z,54.02
2018-09-19T18:50:02.564Z,54.03
2018-09-19T18:52:31.193Z,53.46
2018-09-19T18:54:59.997Z,53.46
2018-09-19T18:57:29.125Z,54.43
2018-09-19T18:59:58.612Z,54.54
2018-09-19T19:02:27.941Z,54.63
2018-09-19T19:04:57.597Z,54.77
2018-09-19T19:07:26.484Z,54.81
2018-09-19T19:09:55.148Z,54.29
2018-09-19T19:12:24.162Z,54.57
2018-09-19T19:14:53.627Z,55.29
2018-09-19T19:17:22.885Z,54.70
2018-09-19T19:19:52.260Z,55.64
2018-09-19T19:22:21.034Z,55.95
2018-09-19T19:24:50.390Z,55.91
2018-09-19T19:27:19.147Z,55.94
2018-09-19T19:29:47.729Z,56.45
2018-09-19T19:32:21.229Z,56.26
2018-09-19T19:34:50.775Z,55.43
2018-09-19T19:37:23.102Z,55.64
2018-09-19T19:39:53.789Z,56.31
2018-09-19T19:42:23.316Z,56.10
2018-09-19T19:44:52.895Z,55.88
2018-09-19T19:47:21.780Z,55.69
2018-09-19T19:49:51.044Z,56.76
2018-09-19T19:52:20.105Z,57.36
2018-09-19T19:54:49.604Z,56.51
2018-09-19T19:57:19.112Z,56.98
2018-09-19T19:59:47.992Z,57.30
2018-09-19T20:02:17.425Z,57.11
2018-09-19T20:04:46.822Z,57.64
2018-09-19T20:07:16.216Z,56.90
2018-09-19T20:09:45.133Z,57.66
2018-09-19T20:12:13.786Z,57.26
2018-09-19T20:14:42.400Z,57.37
2018-09-19T20:17:11.199Z,58.17
2018-09-19T20:19:40.274Z,57.54
2018-09-19T20:22:11.031Z,57.92
2018-09-19T20:24:40.767Z,57.80
2018-09-19T20:27:09.803Z,58.72
2018-09-19T20:29:38.393Z,59.02
2018-09-19T20:32:07.835Z,58.87
2018-09-19T20:34:37.172Z,58.35
2018-09-19T20:37:07.097Z,58.48
2018-09-19T20:39:35.815Z,58.54
2018-09-19T20:42:04.580Z,59.49
2018-09-19T20:44:34.070Z,58.94
2018-09-19T20:47:04.185Z,59.09
2018-09-19T20:49:33.468Z,59.24
2018-09-19T20:52:03.284Z,60.13
2018-09-19T20:54:32.613Z,60.08
2018-09-19T20:57:01.988Z,59.56
2018-09-19T20:59:31.556Z,59.60
2018-09-19T21:02:00.267Z,59.92
2018-09-19T21:04:29.986Z,60.61
2018-09-19T21:06:59.026Z,59.96
2018-09-19T21:09:29.105Z,60.32
2018-09-19T21:11:58.677Z,60.74
2018-09-19T21:14:28.395Z,60.85
2018-09-19T21:16:57.631Z,61.15
2018-09-19T21:19:26.889Z,60.27
2018-09-19T21:21:56.500Z,60.97
2018-09-19T21:24:25.028Z,60.38
2018-09-19T21:26:53.757Z,60.78
2018-09-19T21:29:23.446Z,60.91
2018-09-19T21:31:52.923Z,60.64
2018-09-19T21:34:22.732Z,61.53
2018-09-19T21:36:52.110Z,60.86
2018-09-19T21:39:22.076Z,61.19
2018-09-19T21:41:51.530Z,61.05
2018-09-19T21:44:21.321Z,60.99
2018-09-19T21:46:50.721Z,61.02
2018-09-19T21:49:19.363Z,61.87
2018-09-19T21:51:48.285Z,61.34
2018-09-19T21:54:18.332Z,61.55
2018-09-19T21:56:47.767Z,62.10
2018-09-19T21:59:17.537Z,62.07
2018-09-19T22:01:46.168Z,61.93
2018-09-19T22:04:14.922Z,61.81
2018-09-19T22:06:44.682Z,62.33
2018-09-19T22:09:14.016Z,61.83
2018-09-19T22:11:43.461Z,62.79
2018-09-19T22:14:12.207Z,62.19
2018-09-19T22:16:40.877Z,61.91
2018-09-19T22:19:10.524Z,62.50
2018-09-19T22:21:39.907Z,62.95
2018-09-19T22:24:10.025Z,62.99
2018-09-19T22:26:38.786Z,62.53
2018-09-19T22:29:08.379Z,63.12
2018-09-19T22:31:37.538Z,62.54
2018-09-19T22:34:06.665Z,63.44
2018-09-19T22:36:36.216Z,63.48
2018-09-19T22:39:07.320Z,62.83
2018-09-19T22:41:36.590Z,62.91
2018-09-19T22:44:06.942Z,63.65
2018-09-19T22:46:35.766Z,63.73
2018-09-19T22:49:04.367Z,63.66
2018-09-19T22:51:33.061Z,64.02
2018-09-19T22:54:01.729Z,63.89
2018-09-19T22:56:30.783Z,63.87
2018-09-19T22:59:01.471Z,63.25
2018-09-19T23:01:33.565Z,63.59
2018-09-19T23:04:03.273Z,64.35
2018-09-19T23:06:32.539Z,63.86
2018-09-19T23:09:02.221Z,64.06
2018-09-19T23:11:31.535Z,64.66
2018-09-19T23:14:00.515Z,64.04
2018-09-19T23:16:29.911Z,64.04
2018-09-19T23:18:59.067Z,64.20
2018-09-19T23:21:27.628Z,65.04
2018-09-19T23:23:56.516Z,64.35
2018-09-19T23:26:25.446Z,65.05
2018-09-19T23:28:54.794Z,65.36
2018-09-19T23:31:23.835Z,64.87
2018-09-19T23:33:53.266Z,65.43
2018-09-19T23:36:22.616Z,65.19
2018-09-19T23:38:51.342Z,65.38
2018-09-19T23:41:20.119Z,65.01
2018-09-19T23:43:49.643Z,65.23
2018-09-19T23:46:18.702Z,65.38
2018-09-19T23:48:47.953Z,66.16
2018-09-19T23:51:17.433Z,65.12
2018-09-19T23:53:46.511Z,66.21
2018-09-19T23:56:15.095Z,65.68
2018-09-19T23:58:44.435Z,65.65
